Time;durP1;ratioP1;P1;durP2;ratioP2;P2;SDS_P1;SDS_P2;PMS_P1;PMS_P2;Temp;Humidity;BMP_temperature;BMP_pressure;BME280_temperature;BME280_humidity;BME280_pressure;Samples;Min_cycle;Max_cycle;Signal;HPM_P1;HPM_P2
2022/06/21 00:00:11;;;;;;;2.05;1.60;;;;;;;12.43;65.87;101654.88;5092804;28;20376;-78
2022/06/21 00:02:37;;;;;;;1.77;1.50;;;;;;;12.40;65.88;101651.47;5093980;28;20040;-78
2022/06/21 00:05:02;;;;;;;1.63;1.53;;;;;;;12.35;65.83;101649.75;5093455;28;20077;-78
2022/06/21 00:07:29;;;;;;;2.20;1.70;;;;;;;12.31;65.99;101653.28;5093843;28;20028;-78
2022/06/21 00:09:55;;;;;;;1.80;1.70;;;;;;;12.30;65.92;101658.47;5093252;28;20371;-78
2022/06/21 00:12:21;;;;;;;2.60;1.70;;;;;;;12.27;65.97;101655.94;5092923;28;20023;-78
2022/06/21 00:14:47;;;;;;;1.80;1.70;;;;;;;12.25;66.03;101650.72;5093488;28;20456;-78
2022/06/21 00:17:14;;;;;;;1.50;1.40;;;;;;;12.21;66.45;101654.25;5093255;28;20055;-78
2022/06/21 00:19:41;;;;;;;1.95;1.73;;;;;;;12.15;66.73;101655.16;5091995;28;20191;-78
2022/06/21 00:22:11;;;;;;;1.70;1.60;;;;;;;12.12;66.90;101654.31;5088124;28;20432;-78
2022/06/21 00:24:36;;;;;;;1.80;1.70;;;;;;;12.07;66.60;101650.91;5072559;28;20020;-78
2022/06/21 00:27:02;;;;;;;2.00;1.90;;;;;;;12.01;66.57;101647.44;5073441;28;20082;-78
2022/06/21 00:29:27;;;;;;;1.80;1.70;;;;;;;11.99;66.84;101641.41;5073322;28;20036;-78
2022/06/21 00:31:53;;;;;;;1.80;1.70;;;;;;;11.95;67.13;101649.22;5072040;28;20040;-78
2022/06/21 00:34:21;;;;;;;1.90;1.63;;;;;;;11.90;67.24;101647.53;5072907;28;20024;-78
2022/06/21 00:36:48;;;;;;;3.40;2.00;;;;;;;11.87;67.24;101644.94;5072397;28;20024;-78
2022/06/21 00:39:17;;;;;;;;;;;;;;;11.85;67.48;101635.44;5072776;28;20074;-78
2022/06/21 00:41:51;;;;;;;1.80;1.70;;;;;;;11.81;67.44;101636.31;5072584;28;19952;-78
2022/06/21 00:44:23;;;;;;;1.85;1.75;;;;;;;11.81;67.50;101654.53;5073036;28;20100;-78
2022/06/21 00:46:54;;;;;;;1.80;1.70;;;;;;;11.80;67.58;101650.19;5071692;28;20107;-78
2022/06/21 00:49:26;;;;;;;1.80;1.70;;;;;;;11.77;67.48;101645.00;5072621;28;20016;-78
2022/06/21 00:51:57;;;;;;;1.80;1.70;;;;;;;11.73;67.82;101641.56;5075394;28;20115;-78
2022/06/21 00:54:51;;;;;;;1.80;1.65;;;;;;;11.70;67.70;101633.81;5092698;28;20027;-78
2022/06/21 00:57:19;;;;;;;1.73;1.63;;;;;;;11.66;67.98;101642.50;5093337;28;20048;-78
2022/06/21 00:59:49;;;;;;;1.63;1.52;;;;;;;11.63;68.24;101640.78;5092452;28;20031;-78
2022/06/21 01:02:19;;;;;;;1.80;1.70;;;;;;;11.58;67.98;101638.22;5087165;28;20072;-78
2022/06/21 01:04:50;;;;;;;1.77;1.67;;;;;;;11.54;68.45;101641.72;5072237;28;20057;-78
2022/06/21 01:07:16;;;;;;;1.70;1.60;;;;;;;11.53;68.43;101645.19;5072020;28;20028;-78
2022/06/21 01:09:53;;;;;;;1.83;1.70;;;;;;;11.48;68.43;101633.09;5072432;28;20034;-78
2022/06/21 01:12:34;;;;;;;2.00;1.45;;;;;;;11.40;69.47;101621.00;5076017;28;20033;-78
2022/06/21 01:15:08;;;;;;;1.80;1.50;;;;;;;11.36;68.86;101619.28;5077050;28;20021;-78
2022/06/21 01:17:34;;;;;;;1.70;1.60;;;;;;;11.35;68.97;101612.38;5076559;28;20032;-78
2022/06/21 01:20:03;;;;;;;1.87;1.63;;;;;;;11.36;68.81;101606.31;5076373;28;20111;-78
2022/06/21 01:22:47;;;;;;;1.50;1.40;;;;;;;11.36;69.04;101603.69;5075518;28;20028;-78
2022/06/21 01:25:33;;;;;;;1.73;1.63;;;;;;;11.36;68.93;101611.50;5076380;28;20025;-78
2022/06/21 01:28:00;;;;;;;1.67;1.58;;;;;;;11.36;68.93;101600.25;5093210;28;20032;-78
2022/06/21 01:30:27;;;;;;;1.77;1.65;;;;;;;11.35;69.08;101598.53;5096634;28;20484;-78
2022/06/21 01:32:55;;;;;;;1.92;1.80;;;;;;;11.35;69.21;101606.31;5096623;28;20062;-78
2022/06/21 01:35:34;;;;;;;1.88;1.73;;;;;;;11.35;69.76;101614.13;5095792;28;20030;-78
2022/06/21 01:38:00;;;;;;;2.08;1.80;;;;;;;11.31;68.93;101608.09;5095797;28;20028;-78
2022/06/21 01:40:36;;;;;;;1.80;1.70;;;;;;;11.25;69.79;101611.56;5076397;28;20023;-78
2022/06/21 01:43:09;;;;;;;1.95;1.70;;;;;;;11.21;69.52;101606.38;5075538;28;20024;-78
2022/06/21 01:45:43;;;;;;;2.00;1.80;;;;;;;11.20;69.54;101600.34;5076091;28;20035;-78
2022/06/21 01:48:31;;;;;;;2.03;1.80;;;;;;;11.20;69.82;101599.50;5077037;28;20063;-78
2022/06/21 01:51:06;;;;;;;1.92;1.70;;;;;;;11.17;69.43;101602.94;5082586;28;20036;-78
2022/06/21 01:53:34;;;;;;;1.63;1.52;;;;;;;11.16;69.77;101605.56;5096429;28;20020;-78
2022/06/21 01:56:08;;;;;;;2.05;1.75;;;;;;;11.15;70.08;101609.88;5095545;28;20024;-78
2022/06/21 01:58:43;;;;;;;1.70;1.60;;;;;;;11.10;70.44;101598.66;5095883;28;20055;-78
2022/06/21 02:01:26;;;;;;;1.95;1.75;;;;;;;11.06;70.13;101592.63;5096748;28;20110;-78
2022/06/21 02:03:55;;;;;;;2.05;1.90;;;;;;;11.05;70.33;101596.09;5080330;28;20040;-78
2022/06/21 02:06:27;;;;;;;2.00;1.90;;;;;;;11.06;70.25;101600.41;5075429;28;20052;-78
2022/06/21 02:08:57;;;;;;;1.73;1.63;;;;;;;11.06;70.36;101596.94;5075426;28;20035;-78
2022/06/21 02:11:29;;;;;;;1.50;1.40;;;;;;;11.04;70.81;101596.06;5075278;28;20020;-78
2022/06/21 02:16:49;;;;;;;1.77;1.63;;;;;;;11.02;70.49;101588.31;5055269;28;20601;-78
2022/06/21 02:19:41;;;;;;;1.80;1.70;;;;;;;11.02;70.50;101582.25;5055429;28;20029;-78
2022/06/21 02:22:13;;;;;;;1.92;1.75;;;;;;;10.99;70.72;101585.72;5055323;28;20090;-78
2022/06/21 02:24:39;;;;;;;2.25;1.70;;;;;;;11.01;70.52;101577.94;5054209;28;20021;-78
2022/06/21 02:27:05;;;;;;;2.17;1.80;;;;;;;11.00;70.51;101577.06;5062362;28;20478;-78
2022/06/21 02:29:32;;;;;;;1.90;1.80;;;;;;;11.00;70.65;101577.06;5095501;28;20020;-78
2022/06/21 02:31:57;;;;;;;;;;;;;;;11.01;71.30;101575.34;5094846;28;20249;-78
2022/06/21 02:34:31;;;;;;;1.70;1.60;;;;;;;11.00;71.02;101555.44;5096071;28;20356;-78
2022/06/21 02:36:59;;;;;;;1.90;1.80;;;;;;;10.99;70.90;101540.72;5095047;28;20141;-78
2022/06/21 02:39:29;;;;;;;2.17;1.98;;;;;;;10.97;71.41;101538.97;5087892;28;20077;-78
2022/06/21 02:41:59;;;;;;;1.98;1.88;;;;;;;10.95;71.12;101540.72;5075244;28;20039;-78
2022/06/21 02:44:27;;;;;;;2.10;1.90;;;;;;;10.92;71.11;101540.72;5075494;28;20036;-78
2022/06/21 02:46:59;;;;;;;1.70;1.60;;;;;;;10.92;71.15;101545.94;5074014;28;20384;-78
2022/06/21 02:49:31;;;;;;;2.17;1.98;;;;;;;10.90;71.54;101544.22;5074781;28;20110;-78
2022/06/21 02:51:59;;;;;;;2.80;1.95;;;;;;;10.91;71.41;101546.81;5085101;28;20047;-78
2022/06/21 02:54:40;;;;;;;1.98;1.80;;;;;;;10.88;71.50;101549.44;5094382;28;20024;-78
2022/06/21 02:57:16;;;;;;;1.90;1.80;;;;;;;10.86;71.46;101561.56;5085977;28;20503;-78
2022/06/21 02:59:43;;;;;;;1.80;1.70;;;;;;;10.86;71.60;101568.50;5073664;28;20355;-78
2022/06/21 03:02:18;;;;;;;1.83;1.63;;;;;;;10.85;71.61;101578.00;5074587;28;20378;-78
2022/06/21 03:04:50;;;;;;;1.80;1.70;;;;;;;10.82;71.89;101578.88;5074080;28;20469;-78
2022/06/21 03:07:20;;;;;;;1.92;1.83;;;;;;;10.80;72.30;101580.63;5073904;28;20036;-78
2022/06/21 03:09:46;;;;;;;2.05;1.80;;;;;;;10.77;72.10;101583.22;5074212;28;20039;-78
2022/06/21 03:12:18;;;;;;;1.90;1.80;;;;;;;10.72;72.56;101576.31;5074384;28;20025;-78
2022/06/21 03:14:45;;;;;;;1.70;1.60;;;;;;;10.65;71.91;101576.34;5073436;28;20059;-78
2022/06/21 03:17:10;;;;;;;1.90;1.80;;;;;;;10.61;71.79;101577.22;5074204;28;20036;-78
2022/06/21 03:19:46;;;;;;;2.10;1.90;;;;;;;10.57;71.95;101578.13;5074571;28;20043;-78
2022/06/21 03:22:19;;;;;;;1.77;1.67;;;;;;;10.55;71.91;101574.66;5073609;28;20067;-78
2022/06/21 03:24:46;;;;;;;2.17;1.98;;;;;;;10.53;71.86;101576.41;5073604;28;20789;-78
2022/06/21 03:27:23;;;;;;;3.17;2.00;;;;;;;10.48;71.75;101568.63;5074365;28;20095;-78
2022/06/21 03:29:48;;;;;;;1.92;1.83;;;;;;;10.45;71.96;101570.38;5072666;28;20039;-78
2022/06/21 03:32:14;;;;;;;2.10;2.00;;;;;;;10.42;72.04;101568.63;5074484;28;20107;-78
2022/06/21 03:34:40;;;;;;;2.40;2.10;;;;;;;10.40;72.10;101575.59;5072847;28;20021;-78
2022/06/21 03:37:06;;;;;;;2.70;1.90;;;;;;;10.41;72.32;101576.44;5074089;28;20036;-78
2022/06/21 03:42:19;;;;;;;2.25;1.90;;;;;;;10.35;72.34;101543.56;5074233;28;20062;-78
2022/06/21 03:44:54;;;;;;;1.90;1.73;;;;;;;10.32;72.36;101541.84;5074423;28;20050;-78
2022/06/21 03:47:31;;;;;;;1.98;1.80;;;;;;;10.31;72.58;101539.22;5074006;28;20054;-78
2022/06/21 03:50:21;;;;;;;2.00;1.90;;;;;;;10.30;72.52;101533.19;5073096;28;20111;-78
2022/06/21 03:53:04;;;;;;;2.20;2.00;;;;;;;10.26;72.67;101547.03;5072971;28;20397;-78
2022/06/21 03:55:48;;;;;;;2.30;2.10;;;;;;;10.27;72.63;101538.38;5073974;28;20028;-78
2022/06/21 03:58:38;;;;;;;2.50;2.10;;;;;;;10.28;72.87;101540.09;5073687;28;20028;-78
2022/06/21 04:01:17;;;;;;;3.42;2.15;;;;;;;10.25;73.08;101537.50;5074128;28;20059;-78
2022/06/21 04:03:50;;;;;;;2.03;1.90;;;;;;;10.23;74.88;101544.47;5072556;28;20446;-78
2022/06/21 04:06:38;;;;;;;2.05;1.95;;;;;;;10.22;73.02;101549.63;5073334;28;20024;-78
2022/06/21 04:09:14;;;;;;;1.95;1.80;;;;;;;10.23;72.98;101551.38;5073325;28;20024;-78
2022/06/21 04:12:28;;;;;;;2.55;1.95;;;;;;;10.28;73.17;101562.63;5071992;28;20021;-78
2022/06/21 04:14:59;;;;;;;1.92;1.80;;;;;;;10.30;73.74;101553.94;5036749;28;20024;-78
2022/06/21 04:17:32;;;;;;;1.75;1.65;;;;;;;10.30;73.52;101547.91;5074957;28;20154;-78
2022/06/21 04:20:19;;;;;;;1.90;1.80;;;;;;;10.27;73.74;101551.34;5075103;28;20032;-78
2022/06/21 04:23:20;;;;;;;2.25;1.50;;;;;;;10.29;73.95;101547.03;5072746;28;20137;-78
2022/06/21 04:25:54;;;;;;;1.95;1.80;;;;;;;10.28;73.39;101552.22;5072185;28;20020;-78
2022/06/21 04:28:21;;;;;;;1.85;1.75;;;;;;;10.28;73.67;101555.69;5073289;28;20440;-78
2022/06/21 04:30:53;;;;;;;1.70;1.60;;;;;;;10.30;75.81;101543.56;5072512;28;20366;-78
2022/06/21 04:33:30;;;;;;;2.25;2.05;;;;;;;10.31;76.03;101539.22;5073387;28;20031;-78
2022/06/21 04:36:21;;;;;;;2.80;2.00;;;;;;;10.34;74.54;101545.31;5073015;28;20036;-78
2022/06/21 04:38:56;;;;;;;1.88;1.77;;;;;;;10.40;73.40;101535.78;5072087;28;20119;-78
2022/06/21 04:41:29;;;;;;;2.08;1.98;;;;;;;10.42;73.85;101528.88;5072618;28;20036;-78
2022/06/21 04:44:18;;;;;;;3.63;2.90;;;;;;;10.49;75.40;101533.16;5072886;28;20058;-78
2022/06/21 04:47:05;;;;;;;3.17;2.72;;;;;;;10.55;75.18;101533.13;5071332;28;20025;-78
2022/06/21 04:49:48;;;;;;;3.63;2.90;;;;;;;10.59;76.73;101521.84;5072998;28;20060;-78
2022/06/21 04:52:21;;;;;;;5.13;3.28;;;;;;;10.64;79.84;101511.44;5071725;28;20021;-78
2022/06/21 04:54:49;;;;;;;3.63;3.13;;;;;;;10.68;76.77;101517.50;5072641;28;20033;-78
2022/06/21 04:57:19;;;;;;;5.65;3.45;;;;;;;10.74;78.58;101531.34;5072453;28;20059;-78
2022/06/21 04:59:56;;;;;;;4.72;3.00;;;;;;;10.78;76.66;101532.19;5072377;28;20059;-78
2022/06/21 05:02:28;;;;;;;2.92;2.53;;;;;;;10.86;77.12;101526.94;5083526;28;20434;-79
2022/06/21 05:05:13;;;;;;;5.78;3.50;;;;;;;10.92;80.19;101529.50;5074861;28;20436;-78
2022/06/21 05:07:46;;;;;;;4.57;3.10;;;;;;;10.97;77.16;101528.59;5071509;28;20052;-78
2022/06/21 05:10:18;;;;;;;4.95;3.10;;;;;;;11.04;79.13;101537.22;5072920;28;20041;-78
2022/06/21 05:12:45;;;;;;;4.90;3.20;;;;;;;11.08;78.82;101535.47;5072437;28;20032;-78
2022/06/21 05:15:21;;;;;;;8.68;4.35;;;;;;;11.12;80.95;101532.81;5072979;28;20480;-78
2022/06/21 05:17:52;;;;;;;11.70;5.57;;;;;;;11.17;79.10;101535.38;5072704;28;20450;-78
2022/06/21 05:20:23;;;;;;;9.35;5.18;;;;;;;11.22;79.21;101532.75;5072078;28;20074;-78
2022/06/21 05:22:51;;;;;;;7.53;4.53;;;;;;;11.28;79.76;101527.53;5086165;28;20028;-78
2022/06/21 05:25:26;;;;;;;9.38;4.22;;;;;;;11.33;78.26;101519.69;5093132;28;20039;-78
2022/06/21 05:27:58;;;;;;;6.20;3.50;;;;;;;11.39;78.37;101519.66;5079785;28;20555;-78
2022/06/21 05:30:34;;;;;;;7.40;4.50;;;;;;;11.44;78.51;101513.53;5072488;28;20495;-78
2022/06/21 05:33:12;;;;;;;7.70;3.90;;;;;;;11.51;76.65;101506.56;5072702;28;20025;-78
2022/06/21 05:35:38;;;;;;;8.30;4.32;;;;;;;11.55;77.15;101513.47;5078389;28;20085;-78
2022/06/21 05:38:18;;;;;;;6.67;4.00;;;;;;;11.63;78.59;101523.78;5093214;28;20032;-79
2022/06/21 05:40:52;;;;;;;4.93;3.60;;;;;;;11.71;76.78;101531.50;5092162;28;20107;-79
2022/06/21 05:43:21;;;;;;;7.40;3.83;;;;;;;11.77;76.14;101536.66;5092468;28;20023;-79
2022/06/21 05:46:11;;;;;;;5.47;3.30;;;;;;;11.86;76.69;101536.56;5092820;28;20353;-78
2022/06/21 05:48:38;;;;;;;3.67;2.80;;;;;;;11.94;77.56;101530.44;5091641;28;20472;-78
2022/06/21 05:51:10;;;;;;;4.38;3.20;;;;;;;12.03;76.66;101530.38;5090689;28;20124;-78
2022/06/21 05:53:43;;;;;;;5.78;3.90;;;;;;;12.11;77.40;101528.56;5051936;28;20032;-79
2022/06/21 05:56:14;;;;;;;6.13;3.38;;;;;;;12.21;76.04;101537.13;5051447;28;20439;-79
2022/06/21 05:58:55;;;;;;;4.57;3.35;;;;;;;12.32;76.36;101553.50;5076139;28;20028;-76
2022/06/21 06:01:27;;;;;;;4.82;3.08;;;;;;;12.45;76.38;101555.94;5075616;28;20357;-77
2022/06/21 06:04:15;;;;;;;3.53;2.60;;;;;;;12.78;75.12;101549.47;5074776;28;20021;-77
2022/06/21 06:06:46;;;;;;;5.22;2.90;;;;;;;13.52;74.50;101554.50;5075855;28;20515;-79
2022/06/21 06:09:19;;;;;;;4.60;2.80;;;;;;;15.12;71.58;101561.00;5075446;28;20435;-77
2022/06/21 06:12:01;;;;;;;3.58;2.63;;;;;;;17.26;66.17;101560.50;5075037;28;20112;-79
2022/06/21 06:14:42;;;;;;;5.13;3.00;;;;;;;18.51;59.86;101558.00;5075432;28;20016;-78
2022/06/21 06:17:20;;;;;;;4.35;2.70;;;;;;;18.95;58.75;101569.53;5216511;22;20468;-81
2022/06/21 06:19:55;;;;;;;5.03;2.30;;;;;;;19.04;60.20;101570.94;5095069;28;20499;-81
2022/06/21 06:22:34;;;;;;;7.47;2.95;;;;;;;18.64;58.30;101576.78;5095526;28;20057;-81
2022/06/21 06:25:12;;;;;;;4.13;2.47;;;;;;;18.33;59.14;101570.06;5094798;28;20107;-82
2022/06/21 06:27:49;;;;;;;2.97;2.67;;;;;;;18.20;57.87;101574.88;5095606;28;20021;-81
2022/06/21 06:30:24;;;;;;;4.30;2.35;;;;;;;18.14;56.62;101576.84;5095833;28;20107;-82
2022/06/21 06:33:05;;;;;;;3.13;2.25;;;;;;;18.20;58.62;101589.78;5095770;28;20055;-82
2022/06/21 06:35:31;;;;;;;2.10;1.80;;;;;;;18.44;60.92;101588.03;5095574;28;20081;-82
2022/06/21 06:37:56;;;;;;;2.40;2.00;;;;;;;18.68;59.95;101577.53;5094292;28;20040;-82
2022/06/21 06:40:28;;;;;;;2.20;2.00;;;;;;;18.74;56.28;101577.31;5095371;28;20121;-78
2022/06/21 06:43:04;;;;;;;2.78;2.05;;;;;;;18.63;58.59;101572.44;5095494;28;20020;-80
2022/06/21 06:45:33;;;;;;;1.98;1.77;;;;;;;18.61;59.76;101584.78;5094425;28;20028;-79
2022/06/21 06:48:03;;;;;;;2.13;1.67;;;;;;;18.65;60.08;101582.91;5094286;28;20028;-80
2022/06/21 06:50:54;;;;;;;3.20;1.77;;;;;;;18.75;57.81;101591.31;5094842;28;20016;-79
2022/06/21 06:53:31;;;;;;;1.70;1.60;;;;;;;18.86;59.53;101578.59;5093726;28;20085;-77
2022/06/21 06:56:03;;;;;;;3.97;1.90;;;;;;;18.92;58.62;101583.63;5094683;28;20032;-78
2022/06/21 06:58:40;;;;;;;5.15;2.10;;;;;;;18.68;59.04;101581.03;5094233;28;20040;-77
2022/06/21 07:01:13;;;;;;;2.78;2.10;;;;;;;18.56;60.01;101592.00;5094636;28;20503;-78
2022/06/21 07:03:48;;;;;;;4.65;2.00;;;;;;;18.62;56.65;101586.50;5093538;28;20040;-78
2022/06/21 07:06:23;;;;;;;2.20;2.00;;;;;;;18.67;58.83;101586.34;5093969;28;20020;-78
2022/06/21 07:08:58;;;;;;;2.85;1.90;;;;;;;18.67;58.56;101581.06;5094908;28;20081;-78
2022/06/21 07:11:49;;;;;;;3.25;2.00;;;;;;;18.74;58.40;101579.94;5095625;28;20025;-78
2022/06/21 07:14:21;;;;;;;4.35;2.30;;;;;;;18.76;57.22;101587.78;5093960;28;20058;-79
2022/06/21 07:16:54;;;;;;;3.80;1.98;;;;;;;18.76;57.16;101593.03;5094276;28;20553;-78
2022/06/21 07:19:19;;;;;;;2.10;1.75;;;;;;;18.90;57.82;101589.84;5094464;28;20024;-78
2022/06/21 07:21:45;;;;;;;1.67;1.57;;;;;;;18.97;57.77;101581.72;5093669;28;20396;-78
2022/06/21 07:24:15;;;;;;;1.90;1.80;;;;;;;19.09;55.00;101574.25;5094515;28;20089;-78
2022/06/21 07:26:53;;;;;;;2.20;1.88;;;;;;;19.09;57.16;101567.22;5093009;28;20028;-78
2022/06/21 07:29:27;;;;;;;3.60;2.20;;;;;;;18.93;53.79;101563.44;5093868;28;20106;-78
2022/06/21 07:31:59;;;;;;;3.58;2.20;;;;;;;18.74;56.20;101566.81;5094022;28;20103;-78
2022/06/21 07:34:38;;;;;;;3.90;2.30;;;;;;;18.72;56.15;101573.88;5093563;28;20035;-78
2022/06/21 07:37:39;;;;;;;5.03;2.50;;;;;;;18.81;56.36;101575.28;5094119;28;20028;-78
2022/06/21 07:40:20;;;;;;;4.57;2.53;;;;;;;18.88;56.64;101576.78;5055793;28;20468;-76
2022/06/21 07:43:04;;;;;;;2.90;2.13;;;;;;;19.02;56.11;101578.91;5092967;28;20464;-76
2022/06/21 07:45:55;;;;;;;2.28;1.95;;;;;;;19.23;55.89;101574.56;5094056;28;20020;-76
2022/06/21 07:48:27;;;;;;;2.35;1.83;;;;;;;19.44;54.87;101574.63;5073026;28;20039;-76
2022/06/21 07:51:02;;;;;;;3.70;2.25;;;;;;;19.49;54.36;101577.91;5073292;28;20534;-76
2022/06/21 07:53:44;;;;;;;2.05;1.85;;;;;;;19.37;53.81;101581.91;5073648;28;20028;-76
2022/06/21 07:56:18;;;;;;;4.50;2.20;;;;;;;19.27;54.25;101570.03;5072745;28;20016;-76
2022/06/21 07:59:00;;;;;;;2.42;1.88;;;;;;;19.29;53.83;101569.03;5073239;28;20429;-76
2022/06/21 08:07:29;;;;;;;2.75;2.00;;;;;;;19.67;51.62;101546.47;5073675;28;20133;-76
2022/06/21 08:10:04;;;;;;;3.83;2.20;;;;;;;19.53;53.05;101542.63;5072460;28;20024;-76
2022/06/21 08:12:29;;;;;;;2.47;1.98;;;;;;;19.58;54.90;101545.06;5087466;28;20060;-76
2022/06/21 08:14:55;;;;;;;4.03;2.30;;;;;;;19.64;54.33;101547.47;5093215;28;20093;-76
2022/06/21 08:17:39;;;;;;;4.93;2.40;;;;;;;19.44;49.68;101543.88;5092238;28;20085;-76
2022/06/21 08:20:13;;;;;;;3.92;2.10;;;;;;;19.17;50.82;101553.75;5093027;28;20047;-76
2022/06/21 08:23:03;;;;;;;4.65;2.17;;;;;;;19.01;51.82;101556.13;5093161;28;20027;-76
2022/06/21 08:25:40;;;;;;;4.80;2.13;;;;;;;18.93;52.41;101552.94;5093272;28;20024;-76
2022/06/21 08:28:08;;;;;;;2.50;1.77;;;;;;;18.94;54.62;101550.25;5093465;28;20089;-76
2022/06/21 08:30:48;;;;;;;1.67;1.40;;;;;;;19.12;54.81;101535.53;5092553;28;20028;-76
2022/06/21 08:33:32;;;;;;;1.40;1.30;;;;;;;19.23;55.03;101531.59;5093116;28;20524;-76
2022/06/21 08:36:03;;;;;;;2.20;1.50;;;;;;;19.35;54.96;101525.84;5092648;28;20035;-79
2022/06/21 08:38:50;;;;;;;1.60;1.50;;;;;;;19.36;52.90;101516.19;5090855;28;20060;-76
2022/06/21 08:41:52;;;;;;;2.72;1.60;;;;;;;19.33;52.74;101518.94;5092770;28;20032;-76
2022/06/21 08:44:42;;;;;;;2.28;1.67;;;;;;;19.53;53.94;101528.63;5092301;28;20127;-76
2022/06/21 08:47:29;;;;;;;2.58;1.90;;;;;;;19.75;51.32;101529.44;5089596;28;21133;-76
2022/06/21 08:50:13;;;;;;;1.70;1.60;;;;;;;19.80;53.31;101515.19;5088462;28;20456;-76
2022/06/21 08:53:02;;;;;;;1.70;1.60;;;;;;;19.88;49.45;101499.94;5091350;28;20035;-76
2022/06/21 08:55:42;;;;;;;3.97;2.53;;;;;;;19.71;51.71;101484.84;5086475;28;20052;-76
2022/06/21 08:58:26;;;;;;;4.72;2.40;;;;;;;19.55;50.16;101490.78;5091296;28;20118;-76
2022/06/21 09:00:58;;;;;;;6.25;2.55;;;;;;;19.11;50.36;101475.09;5097049;22;20499;-76
2022/06/21 09:03:37;;;;;;;4.80;2.70;;;;;;;18.81;50.60;101464.84;5113250;28;20024;-76
2022/06/21 09:06:30;;;;;;;4.38;2.40;;;;;;;18.67;51.91;101471.53;5110997;28;20034;-78
2022/06/21 09:09:13;;;;;;;3.05;1.80;;;;;;;18.72;51.21;101486.25;5099963;28;20184;-78
2022/06/21 09:11:57;;;;;;;4.90;2.78;;;;;;;18.57;52.55;101475.44;5092319;28;20028;-78
2022/06/21 09:14:39;;;;;;;6.10;3.05;;;;;;;18.56;51.84;101476.34;5090815;28;20032;-79
2022/06/21 09:17:24;;;;;;;7.75;3.13;;;;;;;18.51;52.38;101476.53;5102080;28;20024;-78
2022/06/21 09:20:18;;;;;;;4.18;2.92;;;;;;;18.72;53.08;101473.97;5060446;28;20039;-78
2022/06/21 09:23:15;;;;;;;5.15;2.90;;;;;;;18.98;50.03;101465.06;5112368;28;20507;-78
2022/06/21 09:26:04;;;;;;;8.18;3.60;;;;;;;18.63;51.71;101456.78;5111055;28;20032;-79
2022/06/21 09:28:39;;;;;;;7.63;3.20;;;;;;;18.81;52.14;101449.94;5091962;28;20039;-79
2022/06/21 09:31:16;;;;;;;6.85;3.08;;;;;;;19.10;50.27;101455.78;5092651;28;20051;-79
2022/06/21 09:34:46;;;;;;;5.70;3.03;;;;;;;19.30;51.37;101451.50;5095415;28;20421;-78
2022/06/21 09:37:20;;;;;;;4.95;2.25;;;;;;;19.75;49.94;101441.66;5046427;28;20040;-79
2022/06/21 09:40:09;;;;;;;4.88;2.50;;;;;;;20.09;50.60;101439.31;5053674;28;20072;-79
2022/06/21 09:42:46;;;;;;;4.03;2.38;;;;;;;20.45;49.72;101436.72;5082668;28;20070;-79
2022/06/21 09:45:27;;;;;;;4.47;2.38;;;;;;;20.72;48.62;101440.75;5096304;28;20047;-79
2022/06/21 09:48:13;;;;;;;7.80;3.20;;;;;;;20.66;47.46;101452.44;5095134;28;20560;-79
2022/06/21 09:50:57;;;;;;;4.57;2.40;;;;;;;20.72;46.84;101459.22;5095896;28;20031;-79
2022/06/21 09:53:44;;;;;;;4.93;2.38;;;;;;;20.77;47.76;101447.53;5096191;28;20028;-79
2022/06/21 09:56:31;;;;;;;5.50;2.72;;;;;;;20.80;48.29;101446.53;5095430;28;20031;-79
2022/06/21 09:59:07;;;;;;;2.83;1.90;;;;;;;20.95;48.98;101439.63;5095431;28;20063;-79
2022/06/21 10:01:38;;;;;;;;;;;;;;;21.01;46.75;101431.44;5098964;28;20032;-79
2022/06/21 10:04:17;;;;;;;3.63;2.10;;;;;;;20.89;47.08;101424.13;5116454;28;19912;-79
2022/06/21 10:06:55;;;;;;;4.32;2.63;;;;;;;20.48;45.03;101433.97;5115921;28;20387;-79
2022/06/21 10:09:33;;;;;;;3.00;2.15;;;;;;;20.39;48.12;101434.38;5115453;28;20024;-79
2022/06/21 10:12:25;;;;;;;3.70;2.00;;;;;;;20.40;47.75;101438.72;5116121;28;20055;-79
2022/06/21 10:15:11;;;;;;;1.65;1.55;;;;;;;20.51;49.03;101446.97;5116436;28;20041;-79
2022/06/21 10:17:41;;;;;;;2.75;1.90;;;;;;;20.62;48.66;101450.88;5115454;28;20039;-78
2022/06/21 10:20:09;;;;;;;7.03;3.00;;;;;;;20.39;46.75;101449.34;5114666;28;20488;-79
2022/06/21 10:22:59;;;;;;;4.25;2.38;;;;;;;20.39;48.42;101438.81;5115297;28;20027;-79
2022/06/21 10:25:39;;;;;;;3.33;2.30;;;;;;;20.42;49.73;101439.50;5116167;28;20494;-79
2022/06/21 10:28:33;;;;;;;4.40;2.08;;;;;;;20.45;48.46;101449.91;5116833;28;20030;-78
2022/06/21 10:31:20;;;;;;;1.80;1.63;;;;;;;20.55;48.40;101454.75;5113861;28;20058;-79
2022/06/21 10:33:46;;;;;;;4.15;2.40;;;;;;;20.57;46.03;101451.09;5114107;28;20396;-79
2022/06/21 10:36:41;;;;;;;5.32;2.47;;;;;;;20.63;47.46;101460.50;5115833;28;20031;-78
2022/06/21 10:39:13;;;;;;;2.70;1.85;;;;;;;20.83;48.66;101446.38;5115821;28;20091;-79
2022/06/21 10:45:07;;;;;;;3.10;1.70;;;;;;;21.27;46.47;101448.59;5114544;28;20035;-80
2022/06/21 10:47:52;;;;;;;6.32;2.60;;;;;;;21.29;45.29;101454.66;5116347;28;20027;-79
2022/06/21 10:50:36;;;;;;;2.65;1.80;;;;;;;21.27;47.03;101459.16;5115858;28;20528;-79
2022/06/21 10:53:17;;;;;;;2.88;1.90;;;;;;;21.33;45.27;101457.97;5115173;28;20036;-79
2022/06/21 10:57:09;;;;;;;3.90;2.15;;;;;;;21.24;46.37;101454.00;5113431;28;20073;-78
2022/06/21 10:58:52;;;;;;;3.03;2.40;;;;;;;21.10;44.44;101453.88;5103271;28;20173;-79
2022/06/21 11:01:30;;;;;;;4.00;2.03;;;;;;;21.04;46.44;101455.03;5094929;28;20040;-79
2022/06/21 11:04:44;;;;;;;3.42;1.60;;;;;;;21.12;46.72;101444.94;5095150;28;20024;-78
2022/06/21 11:07:21;;;;;;;1.52;1.20;;;;;;;21.27;46.32;101451.22;5077434;28;20044;-80
2022/06/21 11:09:56;;;;;;;1.35;1.10;;;;;;;21.55;48.10;101449.81;5094470;28;20495;-80
2022/06/21 11:15:26;;;;;;;2.53;1.45;;;;;;;21.75;44.53;101459.34;5095130;28;20085;-80
2022/06/21 11:17:58;;;;;;;2.33;1.63;;;;;;;21.50;45.27;101453.63;5094369;28;20050;-82
2022/06/21 11:21:06;;;;;;;2.08;1.58;;;;;;;21.41;43.93;101453.16;5093584;28;20063;-79
2022/06/21 11:23:53;;;;;;;2.15;1.90;;;;;;;21.26;45.16;101449.50;5060271;28;20061;-79
2022/06/21 11:26:48;;;;;;;2.42;1.75;;;;;;;21.18;44.95;101450.81;5094220;28;20601;-79
2022/06/21 11:29:29;;;;;;;1.92;1.30;;;;;;;21.18;45.90;101446.41;5092049;28;20392;-79
2022/06/21 11:32:01;;;;;;;1.30;1.20;;;;;;;21.25;45.97;101446.97;5094104;28;20376;-79
2022/06/21 11:35:01;;;;;;;2.55;2.03;;;;;;;21.24;45.28;101446.09;5094259;28;20480;-79
2022/06/21 11:37:37;;;;;;;2.17;1.58;;;;;;;21.27;46.51;101450.38;5093412;28;20059;-78
2022/06/21 11:40:24;;;;;;;1.13;1.02;;;;;;;21.38;46.62;101453.31;5092513;28;20046;-78
2022/06/21 11:42:51;;;;;;;4.85;2.50;;;;;;;21.27;43.12;101453.88;5094542;28;20063;-78
2022/06/21 11:45:37;;;;;;;2.85;2.17;;;;;;;21.12;45.27;101452.00;5104668;28;20035;-77
2022/06/21 11:48:39;;;;;;;3.47;2.10;;;;;;;21.03;44.37;101440.13;5093424;28;20438;-78
2022/06/21 11:51:18;;;;;;;3.05;1.85;;;;;;;20.95;44.79;101439.63;5093953;28;20035;-79
2022/06/21 11:54:14;;;;;;;2.55;1.88;;;;;;;20.92;44.04;101434.53;5094109;28;20042;-79
2022/06/21 11:56:48;;;;;;;2.70;1.55;;;;;;;21.03;45.92;101431.34;5093461;28;20031;-80
2022/06/21 11:59:27;;;;;;;1.55;1.17;;;;;;;21.17;45.28;101433.31;5093588;28;20159;-80
2022/06/21 12:02:10;;;;;;;3.03;1.98;;;;;;;21.12;44.27;101418.56;5093001;28;20361;-77
2022/06/21 12:04:45;;;;;;;6.55;2.90;;;;;;;20.62;41.33;101422.75;5093665;28;20015;-77
2022/06/21 12:07:16;;;;;;;6.32;2.60;;;;;;;20.82;44.29;101418.28;5093870;28;20030;-78
2022/06/21 12:09:52;;;;;;;3.80;1.98;;;;;;;20.95;45.28;101421.16;5092780;28;20027;-79
2022/06/21 12:12:44;;;;;;;1.93;1.50;;;;;;;21.18;45.36;101409.47;5093888;28;20032;-79
2022/06/21 12:15:26;;;;;;;2.05;1.50;;;;;;;21.43;45.80;101419.59;5092975;28;20036;-79
2022/06/21 12:17:59;;;;;;;2.97;1.40;;;;;;;21.64;44.86;101410.69;5093190;28;20031;-79
2022/06/21 12:20:49;;;;;;;1.80;1.27;;;;;;;21.78;44.44;101405.50;5093454;28;20028;-81
2022/06/21 12:23:20;;;;;;;1.10;1.00;;;;;;;21.97;45.19;101405.34;5093749;28;20579;-75
2022/06/21 12:25:46;;;;;;;0.93;0.90;;;;;;;22.19;45.65;101401.50;5094031;28;20348;-79
2022/06/21 12:28:15;;;;;;;;;;;;;;;22.05;40.24;101410.22;5094699;28;20022;-80